createdAt,value
2018-07-12T00:00:02.938Z,18.1
2018-07-12T00:00:43.452Z,18.03
2018-07-12T00:01:24.012Z,18.05
2018-07-12T00:02:04.581Z,18.04
2018-07-12T00:02:45.147Z,18.01
2018-07-12T00:03:25.715Z,18.07
2018-07-12T00:04:06.262Z,18.01
2018-07-12T00:04:46.822Z,18.07
2018-07-12T00:05:27.392Z,18.08
2018-07-12T00:06:07.937Z,18.08
2018-07-12T00:06:51.369Z,18.11
2018-07-12T00:07:31.925Z,18.08
2018-07-12T00:08:12.471Z,18.1
2018-07-12T00:08:53.040Z,18.18
2018-07-12T00:09:33.631Z,18.11
2018-07-12T00:10:14.188Z,18.08
2018-07-12T00:10:54.768Z,18.03
2018-07-12T00:11:35.330Z,18.15
2018-07-12T00:12:15.898Z,18.05
2018-07-12T00:12:56.443Z,18.05
2018-07-12T00:13:37.031Z,18.08
2018-07-12T00:14:17.588Z,18.07
2018-07-12T00:14:58.149Z,18.13
2018-07-12T00:15:38.708Z,18.07
2018-07-12T00:16:19.272Z,18.13
2018-07-12T00:16:59.868Z,18.07
2018-07-12T00:17:40.400Z,18.01
2018-07-12T00:18:20.973Z,18.1
2018-07-12T00:19:01.529Z,18
2018-07-12T00:19:42.095Z,18.04
2018-07-12T00:20:22.654Z,18.08
2018-07-12T00:21:03.211Z,18.05
2018-07-12T00:21:43.777Z,18.03
2018-07-12T00:22:24.336Z,18.07
2018-07-12T00:23:04.886Z,18.08
2018-07-12T00:23:45.449Z,18.04
2018-07-12T00:24:26.015Z,18.08
2018-07-12T00:25:06.570Z,18.04
2018-07-12T00:25:47.136Z,18.05
2018-07-12T00:26:27.701Z,18.04
2018-07-12T00:27:08.269Z,18.07
2018-07-12T00:27:48.836Z,18.03
2018-07-12T00:28:29.386Z,18
2018-07-12T00:29:09.950Z,18.07
2018-07-12T00:29:50.516Z,18.07
2018-07-12T00:30:31.092Z,18.05
2018-07-12T00:31:11.651Z,18.05
2018-07-12T00:31:52.209Z,18.03
2018-07-12T00:32:33.563Z,18.04
2018-07-12T00:33:14.131Z,18
2018-07-12T00:33:54.691Z,18
2018-07-12T00:34:35.257Z,18.07
2018-07-12T00:35:15.814Z,17.98
2018-07-12T00:35:56.382Z,17.98
2018-07-12T00:36:36.948Z,17.98
2018-07-12T00:37:17.520Z,17.98
2018-07-12T00:37:58.079Z,18.04
2018-07-12T00:38:38.640Z,17.97
2018-07-12T00:39:19.198Z,17.9
2018-07-12T00:39:59.781Z,17.94
2018-07-12T00:40:40.331Z,17.98
2018-07-12T00:41:20.898Z,18
2018-07-12T00:42:01.465Z,17.98
2018-07-12T00:42:42.033Z,17.98
2018-07-12T00:43:22.588Z,17.95
2018-07-12T00:44:03.150Z,17.95
2018-07-12T00:44:43.697Z,18.01
2018-07-12T00:45:24.265Z,18.01
2018-07-12T00:46:04.818Z,18
2018-07-12T00:46:45.385Z,17.98
2018-07-12T00:47:25.957Z,17.98
2018-07-12T00:48:06.512Z,18
2018-07-12T00:48:47.097Z,18.01
2018-07-12T00:49:27.655Z,18.01
2018-07-12T00:50:08.224Z,18.01
2018-07-12T00:50:48.767Z,18.01
2018-07-12T00:51:29.329Z,18
2018-07-12T00:52:09.869Z,17.98
2018-07-12T00:52:50.441Z,17.95
2018-07-12T00:53:30.993Z,18.01
2018-07-12T00:54:11.559Z,17.97
2018-07-12T00:54:52.136Z,17.97
2018-07-12T00:55:32.716Z,18
2018-07-12T00:56:13.275Z,17.97
2018-07-12T00:56:53.831Z,18
2018-07-12T00:57:34.406Z,18.03
2018-07-12T00:58:14.973Z,17.98
2018-07-12T00:58:55.554Z,17.98
2018-07-12T00:59:36.113Z,18
2018-07-12T01:00:16.676Z,17.97
2018-07-12T01:00:57.238Z,17.98
2018-07-12T01:01:37.804Z,18.01
2018-07-12T01:02:18.331Z,18.03
2018-07-12T01:02:58.885Z,18
2018-07-12T01:03:39.446Z,18
2018-07-12T01:04:20.025Z,18.01
2018-07-12T01:05:00.599Z,18
2018-07-12T01:05:41.169Z,18
2018-07-12T01:06:21.734Z,18.01
2018-07-12T01:07:02.289Z,17.97
2018-07-12T01:07:42.842Z,17.97
2018-07-12T01:08:23.414Z,17.95
2018-07-12T01:09:03.970Z,17.94
2018-07-12T01:09:44.544Z,17.98
2018-07-12T01:10:25.141Z,17.97
2018-07-12T01:11:05.705Z,18
2018-07-12T01:11:46.272Z,17.98
2018-07-12T01:12:26.837Z,17.97
2018-07-12T01:13:07.412Z,17.94
2018-07-12T01:13:47.965Z,17.95
2018-07-12T01:14:28.530Z,17.9
2018-07-12T01:15:09.099Z,17.92
2018-07-12T01:15:49.662Z,17.95
2018-07-12T01:16:30.223Z,17.94
2018-07-12T01:17:10.785Z,17.92
2018-07-12T01:17:51.327Z,17.94
2018-07-12T01:18:31.890Z,17.94
2018-07-12T01:19:12.455Z,17.94
2018-07-12T01:19:53.030Z,17.92
2018-07-12T01:20:33.606Z,17.94
2018-07-12T01:21:14.158Z,17.94
2018-07-12T01:21:54.717Z,17.94
2018-07-12T01:22:35.278Z,17.94
2018-07-12T01:23:15.846Z,17.9
2018-07-12T01:23:56.399Z,17.92
2018-07-12T01:24:36.968Z,17.94
2018-07-12T01:25:17.546Z,17.9
2018-07-12T01:25:58.108Z,17.94
2018-07-12T01:26:38.677Z,17.97
2018-07-12T01:27:19.260Z,17.89
2018-07-12T01:27:59.787Z,17.92
2018-07-12T01:28:40.333Z,17.87
2018-07-12T01:29:20.893Z,17.95
2018-07-12T01:30:01.457Z,17.86
2018-07-12T01:30:42.024Z,17.94
2018-07-12T01:31:22.596Z,17.86
2018-07-12T01:32:03.154Z,17.9
2018-07-12T01:32:43.730Z,17.85
2018-07-12T01:33:24.295Z,17.87
2018-07-12T01:34:04.937Z,17.86
2018-07-12T01:34:45.476Z,17.86
2018-07-12T01:35:26.039Z,17.85
2018-07-12T01:36:06.649Z,17.95
2018-07-12T01:36:47.191Z,17.9
2018-07-12T01:37:27.751Z,17.87
2018-07-12T01:38:08.324Z,17.92
2018-07-12T01:38:48.884Z,17.9
2018-07-12T01:39:29.454Z,17.95
2018-07-12T01:40:10.001Z,17.89
2018-07-12T01:40:50.542Z,17.86
2018-07-12T01:41:31.112Z,17.87
2018-07-12T01:42:11.684Z,17.85
2018-07-12T01:42:52.247Z,17.92
2018-07-12T01:43:32.831Z,17.89
2018-07-12T01:44:13.390Z,17.83
2018-07-12T01:44:53.943Z,17.94
2018-07-12T01:45:34.499Z,17.98
2018-07-12T01:46:15.069Z,17.86
2018-07-12T01:46:55.629Z,17.86
2018-07-12T01:47:36.189Z,17.83
2018-07-12T01:48:16.747Z,17.87
2018-07-12T01:48:57.314Z,17.87
2018-07-12T01:49:37.878Z,17.82
2018-07-12T01:50:18.447Z,17.87
2018-07-12T01:50:59.004Z,17.92
2018-07-12T01:51:39.574Z,17.8
2018-07-12T01:52:20.119Z,17.85
2018-07-12T01:53:00.694Z,17.82
2018-07-12T01:53:41.267Z,17.82
2018-07-12T01:54:21.832Z,17.87
2018-07-12T01:55:02.391Z,17.86
2018-07-12T01:55:42.942Z,17.78
2018-07-12T01:56:23.520Z,17.8
2018-07-12T01:57:04.085Z,17.86
2018-07-12T01:57:44.661Z,17.86
2018-07-12T01:58:25.245Z,17.83
2018-07-12T01:59:05.804Z,17.85
2018-07-12T01:59:46.366Z,17.86
2018-07-12T02:00:26.975Z,17.83
2018-07-12T02:01:07.483Z,17.86
2018-07-12T02:01:48.055Z,17.92
2018-07-12T02:02:28.622Z,17.86
2018-07-12T02:03:09.199Z,17.87
2018-07-12T02:03:49.756Z,17.78
2018-07-12T02:04:30.304Z,17.78
2018-07-12T02:05:10.866Z,17.76
2018-07-12T02:05:51.416Z,17.79
2018-07-12T02:06:31.986Z,17.86
2018-07-12T02:07:12.545Z,17.9
2018-07-12T02:07:53.112Z,17.79
2018-07-12T02:08:33.674Z,17.83
2018-07-12T02:09:14.246Z,17.78
2018-07-12T02:09:54.788Z,17.82
2018-07-12T02:10:35.347Z,17.89
2018-07-12T02:11:15.925Z,17.8
2018-07-12T02:11:56.502Z,17.87
2018-07-12T02:12:37.067Z,17.87
2018-07-12T02:13:17.636Z,17.83
2018-07-12T02:13:58.213Z,17.74
2018-07-12T02:14:38.799Z,17.85
2018-07-12T02:15:19.377Z,17.78
2018-07-12T02:15:59.972Z,17.82
2018-07-12T02:16:40.533Z,17.87
2018-07-12T02:17:21.087Z,17.85
2018-07-12T02:18:01.662Z,17.85
2018-07-12T02:18:42.228Z,17.82
2018-07-12T02:19:22.810Z,17.79
2018-07-12T02:20:03.376Z,17.76
2018-07-12T02:20:43.964Z,17.76
2018-07-12T02:21:24.525Z,17.76
2018-07-12T02:22:05.114Z,17.82
2018-07-12T02:22:45.686Z,17.74
2018-07-12T02:23:26.253Z,17.76
2018-07-12T02:24:06.810Z,17.76
2018-07-12T02:24:47.388Z,17.78
2018-07-12T02:25:27.958Z,17.74
2018-07-12T02:26:08.529Z,17.72
2018-07-12T02:26:49.096Z,17.72
2018-07-12T02:27:29.658Z,17.71
2018-07-12T02:28:10.229Z,17.71
2018-07-12T02:28:50.791Z,17.74
2018-07-12T02:29:31.349Z,17.78
2018-07-12T02:30:11.907Z,17.72
2018-07-12T02:30:52.487Z,17.74
2018-07-12T02:31:33.036Z,17.72
2018-07-12T02:32:13.605Z,17.71
2018-07-12T02:32:54.159Z,17.76
2018-07-12T02:33:34.735Z,17.76
2018-07-12T02:34:15.300Z,17.63
2018-07-12T02:34:55.873Z,17.76
2018-07-12T02:35:36.439Z,17.7
2018-07-12T02:36:17.000Z,17.72
2018-07-12T02:36:57.558Z,17.68
2018-07-12T02:37:38.122Z,17.67
2018-07-12T02:38:18.698Z,17.74
2018-07-12T02:38:59.264Z,17.72
2018-07-12T02:39:39.835Z,17.7
2018-07-12T02:40:20.388Z,17.71
2018-07-12T02:41:00.951Z,17.63
2018-07-12T02:41:41.517Z,17.68
2018-07-12T02:42:22.077Z,17.7
2018-07-12T02:43:02.644Z,17.7
2018-07-12T02:43:43.209Z,17.59
2018-07-12T02:44:23.776Z,17.56
2018-07-12T02:45:04.344Z,17.6
2018-07-12T02:45:44.903Z,17.65
2018-07-12T02:46:25.469Z,17.63
2018-07-12T02:47:06.029Z,17.65
2018-07-12T02:47:46.590Z,17.54
2018-07-12T02:48:27.164Z,17.63
2018-07-12T02:49:07.726Z,17.65
2018-07-12T02:49:48.306Z,17.65
2018-07-12T02:50:28.864Z,17.52
2018-07-12T02:51:09.418Z,17.54
2018-07-12T02:51:49.989Z,17.65
2018-07-12T02:52:30.549Z,17.6
2018-07-12T02:53:11.119Z,17.63
2018-07-12T02:53:51.678Z,17.54
2018-07-12T02:54:32.254Z,17.57
2018-07-12T02:55:12.818Z,17.49
2018-07-12T02:55:53.378Z,17.46
2018-07-12T02:56:33.973Z,17.52
2018-07-12T02:57:14.533Z,17.51
2018-07-12T02:57:55.105Z,17.42
2018-07-12T02:58:35.656Z,17.41
2018-07-12T02:59:16.223Z,17.52
2018-07-12T02:59:56.800Z,17.46
2018-07-12T03:00:37.393Z,17.44
2018-07-12T03:01:17.966Z,17.49
2018-07-12T03:01:58.526Z,17.51
2018-07-12T03:02:39.071Z,17.48
2018-07-12T03:03:19.643Z,17.44
2018-07-12T03:04:00.193Z,17.45
2018-07-12T03:04:40.767Z,17.52
2018-07-12T03:05:21.327Z,17.44
2018-07-12T03:06:01.884Z,17.44
2018-07-12T03:06:42.444Z,17.41
2018-07-12T03:07:23.006Z,17.45
2018-07-12T03:08:03.596Z,17.45
2018-07-12T03:08:44.186Z,17.46
2018-07-12T03:09:24.733Z,17.49
2018-07-12T03:10:05.299Z,17.39
2018-07-12T03:10:45.862Z,17.39
2018-07-12T03:11:26.431Z,17.42
2018-07-12T03:12:06.997Z,17.44
2018-07-12T03:12:47.559Z,17.49
2018-07-12T03:13:28.116Z,17.48
2018-07-12T03:14:08.661Z,17.42
2018-07-12T03:14:49.215Z,17.44
2018-07-12T03:15:29.769Z,17.41
2018-07-12T03:16:10.376Z,17.42
2018-07-12T03:16:50.908Z,17.39
2018-07-12T03:17:31.462Z,17.36
2018-07-12T03:18:12.035Z,17.34
2018-07-12T03:18:52.608Z,17.44
2018-07-12T03:19:33.170Z,17.36
2018-07-12T03:20:13.744Z,17.34
2018-07-12T03:20:54.296Z,17.41
2018-07-12T03:21:34.862Z,17.38
2018-07-12T03:22:15.423Z,17.39
2018-07-12T03:22:55.989Z,17.34
2018-07-12T03:23:36.554Z,17.38
2018-07-12T03:24:17.099Z,17.36
2018-07-12T03:24:57.661Z,17.36
2018-07-12T03:25:38.245Z,17.34
2018-07-12T03:26:18.803Z,17.42
2018-07-12T03:26:59.379Z,17.39
2018-07-12T03:27:39.958Z,17.31
2018-07-12T03:28:20.519Z,17.36
2018-07-12T03:29:01.086Z,17.34
2018-07-12T03:29:41.634Z,17.42
2018-07-12T03:30:22.196Z,17.42
2018-07-12T03:31:02.759Z,17.36
2018-07-12T03:31:43.331Z,17.33
2018-07-12T03:32:23.891Z,17.34
2018-07-12T03:33:04.465Z,17.33
2018-07-12T03:33:45.034Z,17.39
2018-07-12T03:34:25.595Z,17.36
2018-07-12T03:35:06.169Z,17.39
2018-07-12T03:35:46.746Z,17.33
2018-07-12T03:36:27.320Z,17.31
2018-07-12T03:37:07.926Z,17.38
2018-07-12T03:37:48.488Z,17.39
2018-07-12T03:38:29.052Z,17.39
2018-07-12T03:39:09.642Z,17.33
2018-07-12T03:39:50.208Z,17.34
2018-07-12T03:40:30.816Z,17.34
2018-07-12T03:41:11.369Z,17.31
2018-07-12T03:41:51.934Z,17.34
2018-07-12T03:42:32.483Z,17.38
2018-07-12T03:43:13.042Z,17.3
2018-07-12T03:43:53.595Z,17.33
2018-07-12T03:44:34.189Z,17.3
2018-07-12T03:45:14.752Z,17.34
2018-07-12T03:45:55.312Z,17.3
2018-07-12T03:46:35.884Z,17.44
2018-07-12T03:47:16.446Z,17.34
2018-07-12T03:47:57.014Z,17.26
2018-07-12T03:48:37.599Z,17.39
2018-07-12T03:49:18.167Z,17.34
2018-07-12T03:49:58.746Z,17.3
2018-07-12T03:50:39.301Z,17.33
2018-07-12T03:51:19.850Z,17.36
2018-07-12T03:52:00.414Z,17.36
2018-07-12T03:52:40.985Z,17.36
2018-07-12T03:53:21.518Z,17.39
2018-07-12T03:54:02.071Z,17.36
2018-07-12T03:54:42.628Z,17.33
2018-07-12T03:55:23.228Z,17.39
2018-07-12T03:56:03.799Z,17.33
2018-07-12T03:56:44.375Z,17.3
2018-07-12T03:57:24.941Z,17.3
2018-07-12T03:58:05.581Z,17.29
2018-07-12T03:58:46.078Z,17.33
2018-07-12T03:59:26.665Z,17.39
2018-07-12T04:00:07.249Z,17.3
2018-07-12T04:00:47.816Z,17.36
2018-07-12T04:01:28.384Z,17.38
2018-07-12T04:02:08.957Z,17.33
2018-07-12T04:02:49.521Z,17.31
2018-07-12T04:03:30.132Z,17.34
2018-07-12T04:04:10.640Z,17.36
2018-07-12T04:04:51.196Z,17.34
2018-07-12T04:05:31.745Z,17.31
2018-07-12T04:06:12.314Z,17.34
2018-07-12T04:06:52.916Z,17.34
2018-07-12T04:07:33.472Z,17.34
2018-07-12T04:08:14.035Z,17.36
2018-07-12T04:08:54.602Z,17.41
2018-07-12T04:09:35.145Z,17.3
2018-07-12T04:10:15.707Z,17.34
2018-07-12T04:10:56.280Z,17.33
2018-07-12T04:11:36.852Z,17.36
2018-07-12T04:12:17.421Z,17.3
2018-07-12T04:12:57.971Z,17.29
2018-07-12T04:13:38.536Z,17.29
2018-07-12T04:14:19.112Z,17.3
2018-07-12T04:14:59.666Z,17.39
2018-07-12T04:15:40.232Z,17.31
2018-07-12T04:16:20.803Z,17.44
2018-07-12T04:17:01.360Z,17.36
2018-07-12T04:17:41.954Z,17.34
2018-07-12T04:18:22.505Z,17.34
2018-07-12T04:19:03.063Z,17.31
2018-07-12T04:19:43.620Z,17.29
2018-07-12T04:20:24.188Z,17.29
2018-07-12T04:21:04.753Z,17.26
2018-07-12T04:21:45.311Z,17.33
2018-07-12T04:22:25.916Z,17.34
2018-07-12T04:23:06.433Z,17.33
2018-07-12T04:23:47.001Z,17.38
2018-07-12T04:24:27.576Z,17.27
2018-07-12T04:25:08.125Z,17.26
2018-07-12T04:25:48.689Z,17.23
2018-07-12T04:26:29.287Z,17.31
2018-07-12T04:27:09.856Z,17.24
2018-07-12T04:27:50.416Z,17.29
2018-07-12T04:28:30.976Z,17.26
2018-07-12T04:29:11.546Z,17.29
2018-07-12T04:29:52.110Z,17.27
2018-07-12T04:30:32.684Z,17.3
2018-07-12T04:31:13.247Z,17.24
2018-07-12T04:31:53.814Z,17.29
2018-07-12T04:32:34.383Z,17.31
2018-07-12T04:33:14.940Z,17.34
2018-07-12T04:33:55.505Z,17.29
2018-07-12T04:34:36.118Z,17.34
2018-07-12T04:35:16.633Z,17.39
2018-07-12T04:35:57.197Z,17.34
2018-07-12T04:36:37.778Z,17.34
2018-07-12T04:37:18.344Z,17.27
2018-07-12T04:37:58.948Z,17.16
2018-07-12T04:38:39.511Z,17.2
2018-07-12T04:39:20.083Z,17.22
2018-07-12T04:40:00.655Z,17.23
2018-07-12T04:40:41.226Z,17.16
2018-07-12T04:41:21.779Z,17.26
2018-07-12T04:42:02.389Z,17.27
2018-07-12T04:42:42.939Z,17.23
2018-07-12T04:43:23.541Z,17.24
2018-07-12T04:44:04.108Z,17.24
2018-07-12T04:44:44.691Z,17.24
2018-07-12T04:45:25.261Z,17.24
2018-07-12T04:46:05.823Z,17.2
2018-07-12T04:46:46.395Z,17.26
2018-07-12T04:47:26.947Z,17.16
2018-07-12T04:48:07.526Z,17.24
2018-07-12T04:48:48.075Z,17.24
2018-07-12T04:49:28.642Z,17.22
2018-07-12T04:50:09.195Z,17.24
2018-07-12T04:50:49.765Z,17.22
2018-07-12T04:51:30.340Z,17.12
2018-07-12T04:52:10.908Z,17.22
2018-07-12T04:52:51.479Z,17.23
2018-07-12T04:53:32.062Z,17.22
2018-07-12T04:54:12.643Z,17.2
2018-07-12T04:54:53.170Z,17.2
2018-07-12T04:55:33.734Z,17.26
2018-07-12T04:56:14.287Z,17.23
2018-07-12T04:56:54.839Z,17.24
2018-07-12T04:57:35.398Z,17.16
2018-07-12T04:58:15.961Z,17.19
2018-07-12T04:58:56.503Z,17.24
2018-07-12T04:59:37.096Z,17.29
2018-07-12T05:00:17.667Z,17.19
2018-07-12T05:00:58.246Z,17.22
2018-07-12T05:01:38.799Z,17.27
2018-07-12T05:02:19.352Z,17.24
2018-07-12T05:02:59.907Z,17.24
2018-07-12T05:03:40.459Z,17.23
2018-07-12T05:04:21.002Z,17.23
2018-07-12T05:05:01.568Z,17.16
2018-07-12T05:05:42.115Z,17.23
2018-07-12T05:06:22.699Z,17.3
2018-07-12T05:07:03.261Z,17.19
2018-07-12T05:07:43.923Z,17.2
2018-07-12T05:08:24.477Z,17.24
2018-07-12T05:09:05.036Z,17.22
2018-07-12T05:09:45.637Z,17.19
2018-07-12T05:10:26.198Z,17.19
2018-07-12T05:11:06.766Z,17.16
2018-07-12T05:11:47.351Z,17.23
2018-07-12T05:12:27.891Z,17.26
2018-07-12T05:13:08.511Z,17.19
2018-07-12T05:13:49.072Z,17.24
2018-07-12T05:14:29.640Z,17.23
2018-07-12T05:15:10.212Z,17.22
2018-07-12T05:15:50.791Z,17.23
2018-07-12T05:16:31.364Z,17.24
2018-07-12T05:17:11.939Z,17.23
2018-07-12T05:17:52.502Z,17.22
2018-07-12T05:18:33.073Z,17.16
2018-07-12T05:19:13.635Z,17.23
2018-07-12T05:19:54.184Z,17.23
2018-07-12T05:20:34.750Z,17.24
2018-07-12T05:21:15.309Z,17.15
2018-07-12T05:21:55.939Z,17.23
2018-07-12T05:22:36.470Z,17.23
2018-07-12T05:23:17.020Z,17.27
2018-07-12T05:23:57.574Z,17.31
2018-07-12T05:24:38.141Z,17.3
2018-07-12T05:25:18.710Z,17.33
2018-07-12T05:25:59.276Z,17.31
2018-07-12T05:26:39.850Z,17.31
2018-07-12T05:27:20.411Z,17.23
2018-07-12T05:28:01.002Z,17.26
2018-07-12T05:28:41.530Z,17.31
2018-07-12T05:29:22.119Z,17.31
2018-07-12T05:30:02.667Z,17.24
2018-07-12T05:30:43.289Z,17.22
2018-07-12T05:31:23.966Z,17.19
2018-07-12T05:32:04.512Z,17.3
2018-07-12T05:32:45.077Z,17.29
2018-07-12T05:33:25.683Z,17.34
2018-07-12T05:34:06.241Z,17.29
2018-07-12T05:34:46.809Z,17.29
2018-07-12T05:35:27.371Z,17.29
2018-07-12T05:36:07.944Z,17.31
2018-07-12T05:36:48.503Z,17.27
2018-07-12T05:37:29.069Z,17.3
2018-07-12T05:38:09.620Z,17.3
2018-07-12T05:38:50.233Z,17.22
2018-07-12T05:39:30.796Z,17.19
2018-07-12T05:40:11.379Z,17.19
2018-07-12T05:40:51.988Z,17.23
2018-07-12T05:41:32.564Z,17.24
2018-07-12T05:42:13.144Z,17.22
2018-07-12T05:42:53.713Z,17.26
2018-07-12T05:43:34.277Z,17.22
2018-07-12T05:44:14.836Z,17.2
2018-07-12T05:44:55.401Z,17.23
2018-07-12T05:45:35.991Z,17.29
2018-07-12T05:46:16.607Z,17.33
2018-07-12T05:46:57.185Z,17.3
2018-07-12T05:47:37.752Z,17.26
2018-07-12T05:48:18.317Z,17.26
2018-07-12T05:48:58.891Z,17.39
2018-07-12T05:49:39.460Z,17.31
2018-07-12T05:50:20.017Z,17.36
2018-07-12T05:51:00.574Z,17.34
2018-07-12T05:51:41.144Z,17.39
2018-07-12T05:52:21.713Z,17.34
2018-07-12T05:53:02.288Z,17.3
2018-07-12T05:53:42.846Z,17.3
2018-07-12T05:54:23.406Z,17.39
2018-07-12T05:55:03.977Z,17.38
2018-07-12T05:55:44.546Z,17.45
2018-07-12T05:56:25.112Z,17.38
2018-07-12T05:57:05.665Z,17.46
2018-07-12T05:57:46.236Z,17.44
2018-07-12T05:58:26.802Z,17.42
2018-07-12T05:59:07.358Z,17.46
2018-07-12T05:59:47.924Z,17.46
2018-07-12T06:00:28.492Z,17.59
2018-07-12T06:01:09.062Z,17.7
2018-07-12T06:01:49.634Z,17.64
2018-07-12T06:02:30.200Z,17.6
2018-07-12T06:03:10.794Z,17.65
2018-07-12T06:03:51.374Z,17.7
2018-07-12T06:04:31.945Z,17.72
2018-07-12T06:05:12.511Z,17.7
2018-07-12T06:05:53.076Z,17.72
2018-07-12T06:06:33.643Z,17.72
2018-07-12T06:07:14.219Z,17.78
2018-07-12T06:07:54.787Z,17.72
2018-07-12T06:08:35.348Z,17.76
2018-07-12T06:09:15.919Z,17.87
2018-07-12T06:09:56.497Z,17.78
2018-07-12T06:10:37.076Z,17.78
2018-07-12T06:11:17.624Z,17.83
2018-07-12T06:11:58.202Z,17.94
2018-07-12T06:12:38.760Z,17.89
2018-07-12T06:13:19.418Z,17.83
2018-07-12T06:13:59.902Z,17.89
2018-07-12T06:14:40.470Z,17.86
2018-07-12T06:15:21.017Z,17.94
2018-07-12T06:16:01.669Z,17.92
2018-07-12T06:16:42.161Z,17.9
2018-07-12T06:17:22.727Z,18.03
2018-07-12T06:18:03.308Z,18.03
2018-07-12T06:18:43.873Z,18.03
2018-07-12T06:19:24.435Z,18.08
2018-07-12T06:20:05.013Z,18.01
2018-07-12T06:20:45.573Z,18.13
2018-07-12T06:21:26.117Z,18.13
2018-07-12T06:22:06.685Z,18.11
2018-07-12T06:22:47.244Z,18.15
2018-07-12T06:23:27.805Z,18.19
2018-07-12T06:24:08.381Z,18.25
2018-07-12T06:24:49.008Z,18.2
2018-07-12T06:25:30.034Z,18.23
2018-07-12T06:26:10.643Z,18.25
2018-07-12T06:26:51.205Z,18.2
2018-07-12T06:27:31.762Z,18.2
2018-07-12T06:28:12.325Z,18.18
2018-07-12T06:28:52.901Z,18.2
2018-07-12T06:29:33.478Z,18.23
2018-07-12T06:30:14.046Z,18.18
2018-07-12T06:30:54.613Z,18.16
2018-07-12T06:31:35.179Z,18.18
2018-07-12T06:32:15.740Z,18.15
2018-07-12T06:32:56.320Z,18.2
2018-07-12T06:33:36.895Z,18.26
2018-07-12T06:34:17.460Z,18.2
2018-07-12T06:34:58.021Z,18.19
2018-07-12T06:35:38.580Z,18.2
2018-07-12T06:36:19.146Z,18.19
2018-07-12T06:36:59.696Z,18.11
2018-07-12T06:37:40.306Z,18.19
2018-07-12T06:38:20.876Z,18.22
2018-07-12T06:39:01.468Z,18.26
2018-07-12T06:39:42.032Z,18.19
2018-07-12T06:40:22.610Z,18.15
2018-07-12T06:41:03.203Z,18.11
2018-07-12T06:41:43.761Z,18.2
2018-07-12T06:42:24.351Z,18.19
2018-07-12T06:43:04.911Z,18.18
2018-07-12T06:43:45.477Z,18.07
2018-07-12T06:44:26.041Z,18.2
2018-07-12T06:45:06.601Z,18.15
2018-07-12T06:45:47.169Z,18.26
2018-07-12T06:46:27.754Z,18.28
2018-07-12T06:47:08.320Z,18.28
2018-07-12T06:47:48.882Z,18.28
2018-07-12T06:48:29.451Z,18.23
2018-07-12T06:49:10.026Z,18.33
2018-07-12T06:49:50.600Z,18.43
2018-07-12T06:50:31.172Z,18.44
2018-07-12T06:51:11.731Z,18.45
2018-07-12T06:51:52.297Z,18.45
2018-07-12T06:52:32.871Z,18.43
2018-07-12T06:53:13.437Z,18.4
2018-07-12T06:53:53.975Z,18.43
2018-07-12T06:54:34.563Z,18.43
2018-07-12T06:55:15.116Z,18.52
2018-07-12T06:55:55.684Z,18.45
2018-07-12T06:56:36.256Z,18.45
2018-07-12T06:57:16.864Z,18.45
2018-07-12T06:57:57.516Z,18.43
2018-07-12T06:58:38.078Z,18.41
2018-07-12T06:59:18.635Z,18.4
2018-07-12T06:59:59.202Z,18.34
2018-07-12T07:00:39.811Z,18.35
2018-07-12T07:01:20.338Z,18.4
2018-07-12T07:02:00.924Z,18.45
2018-07-12T07:02:41.500Z,18.43
2018-07-12T07:03:22.067Z,18.41
2018-07-12T07:04:02.622Z,18.38
2018-07-12T07:04:43.184Z,18.44
2018-07-12T07:05:23.739Z,18.41
2018-07-12T07:06:04.333Z,18.38
2018-07-12T07:06:44.904Z,18.4
2018-07-12T07:07:25.523Z,18.35
2018-07-12T07:08:06.040Z,18.41
2018-07-12T07:08:46.603Z,18.44
2018-07-12T07:09:27.179Z,18.41
2018-07-12T07:10:07.752Z,18.34
2018-07-12T07:10:48.308Z,18.38
2018-07-12T07:11:28.883Z,18.5
2018-07-12T07:12:09.450Z,18.4
2018-07-12T07:12:50.028Z,18.45
2018-07-12T07:13:30.596Z,18.45
2018-07-12T07:14:11.176Z,18.45
2018-07-12T07:14:51.830Z,18.44
2018-07-12T07:15:32.337Z,18.45
2018-07-12T07:16:12.913Z,18.44
2018-07-12T07:16:53.489Z,18.45
2018-07-12T07:17:34.055Z,18.44
2018-07-12T07:18:14.626Z,18.45
2018-07-12T07:18:55.234Z,18.4
2018-07-12T07:19:35.793Z,18.5
2018-07-12T07:20:16.429Z,18.45
2018-07-12T07:20:56.963Z,18.49
2018-07-12T07:21:37.522Z,18.43
2018-07-12T07:22:18.091Z,18.43
2018-07-12T07:22:58.661Z,18.47
2018-07-12T07:23:39.219Z,18.47
2018-07-12T07:24:19.781Z,18.45
2018-07-12T07:25:00.380Z,18.47
2018-07-12T07:25:40.968Z,18.47
2018-07-12T07:26:21.596Z,18.41
2018-07-12T07:27:02.069Z,18.43
2018-07-12T07:27:42.632Z,18.45
2018-07-12T07:28:23.190Z,18.45
2018-07-12T07:29:03.774Z,18.45
2018-07-12T07:29:44.314Z,18.37
2018-07-12T07:30:24.883Z,18.38
2018-07-12T07:31:05.460Z,18.41
2018-07-12T07:31:46.012Z,18.38
2018-07-12T07:32:26.647Z,18.33
2018-07-12T07:33:07.129Z,18.33
2018-07-12T07:33:47.719Z,18.35
2018-07-12T07:34:28.233Z,18.35
2018-07-12T07:35:08.792Z,18.35
2018-07-12T07:35:49.360Z,18.44
2018-07-12T07:36:29.942Z,18.47
2018-07-12T07:37:10.516Z,18.43
2018-07-12T07:37:51.077Z,18.44
2018-07-12T07:38:31.646Z,18.41
2018-07-12T07:39:12.215Z,18.49
2018-07-12T07:39:52.771Z,18.35
2018-07-12T07:40:33.348Z,18.33
2018-07-12T07:41:13.908Z,18.37
2018-07-12T07:41:54.476Z,18.41
2018-07-12T07:42:35.014Z,18.43
2018-07-12T07:43:15.629Z,18.34
2018-07-12T07:43:56.159Z,18.33
2018-07-12T07:44:36.691Z,18.4
2018-07-12T07:45:17.241Z,18.34
2018-07-12T07:45:57.834Z,18.33
2018-07-12T07:46:38.401Z,18.34
2018-07-12T07:47:18.986Z,18.38
2018-07-12T07:47:59.544Z,18.34
2018-07-12T07:48:40.115Z,18.25
2018-07-12T07:49:20.743Z,18.31
2018-07-12T07:50:01.277Z,18.31
2018-07-12T07:50:41.855Z,18.28
2018-07-12T07:51:22.438Z,18.33
2018-07-12T07:52:03.002Z,18.33
2018-07-12T07:52:43.561Z,18.34
2018-07-12T07:53:24.137Z,18.29
2018-07-12T07:54:04.715Z,18.34
2018-07-12T07:54:45.324Z,18.29
2018-07-12T07:55:25.890Z,18.35
2018-07-12T07:56:06.459Z,18.38
2018-07-12T07:56:47.030Z,18.26
2018-07-12T07:57:27.603Z,18.29
2018-07-12T07:58:08.179Z,18.34
2018-07-12T07:58:48.764Z,18.4
2018-07-12T07:59:29.340Z,18.26
2018-07-12T08:00:09.907Z,18.29
2018-07-12T08:00:50.469Z,18.29
2018-07-12T08:01:31.040Z,18.33
2018-07-12T08:02:11.607Z,18.29
2018-07-12T08:02:52.167Z,18.33
2018-07-12T08:03:32.719Z,18.29
2018-07-12T08:04:13.269Z,18.29
2018-07-12T08:04:53.875Z,18.29
2018-07-12T08:05:34.445Z,18.33
2018-07-12T08:06:15.009Z,18.31
2018-07-12T08:06:55.566Z,18.33
2018-07-12T08:07:36.421Z,18.26
2018-07-12T08:08:16.754Z,18.2
2018-07-12T08:08:57.367Z,18.31
2018-07-12T08:09:37.952Z,18.28
2018-07-12T08:10:18.499Z,18.29
2018-07-12T08:10:59.078Z,18.33
2018-07-12T08:11:39.627Z,18.25
2018-07-12T08:12:20.194Z,18.29
2018-07-12T08:13:00.756Z,18.2
2018-07-12T08:13:41.327Z,18.28
2018-07-12T08:14:21.905Z,18.13
2018-07-12T08:15:02.464Z,18.13
2018-07-12T08:15:43.067Z,18.11
2018-07-12T08:16:23.707Z,18.2
2018-07-12T08:17:04.224Z,18.13
2018-07-12T08:17:44.792Z,18.13
2018-07-12T08:18:25.392Z,18.15
2018-07-12T08:19:05.958Z,18.2
2018-07-12T08:19:46.565Z,18.18
2018-07-12T08:20:27.130Z,18.16
2018-07-12T08:21:07.701Z,18.22
2018-07-12T08:21:48.275Z,18.2
2018-07-12T08:22:28.839Z,18.19
2018-07-12T08:23:09.405Z,18.19
2018-07-12T08:23:49.970Z,18.13
2018-07-12T08:24:30.548Z,18.22
2018-07-12T08:25:11.095Z,18.15
2018-07-12T08:25:51.660Z,18.16
2018-07-12T08:26:32.226Z,18.18
2018-07-12T08:27:12.784Z,18.15
2018-07-12T08:27:53.339Z,18.11
2018-07-12T08:28:33.898Z,18.16
2018-07-12T08:29:14.444Z,18.13
2018-07-12T08:29:55.019Z,18.13
2018-07-12T08:30:35.575Z,18.05
2018-07-12T08:31:16.210Z,18.08
2018-07-12T08:31:56.706Z,18.05
2018-07-12T08:32:37.265Z,18.11
2018-07-12T08:33:17.906Z,18.11
2018-07-12T08:33:58.407Z,18
2018-07-12T08:34:38.965Z,18.08
2018-07-12T08:35:19.590Z,18.08
2018-07-12T08:36:00.147Z,18.03
2018-07-12T08:36:40.699Z,18.1
2018-07-12T08:37:21.275Z,18.05
2018-07-12T08:38:01.839Z,18.03
2018-07-12T08:38:42.410Z,18.08
2018-07-12T08:39:22.987Z,18.1
2018-07-12T08:40:03.555Z,18.08
2018-07-12T08:40:44.115Z,18.04
2018-07-12T08:41:24.668Z,18.08
2018-07-12T08:42:05.235Z,18.04
2018-07-12T08:42:45.802Z,18
2018-07-12T08:43:26.415Z,17.98
2018-07-12T08:44:06.983Z,17.92
2018-07-12T08:44:47.559Z,17.97